createdAt,value
2018-12-30T00:02:25.957Z,4.27
2018-12-30T00:04:58.837Z,4.63
2018-12-30T00:07:30.434Z,4.20
2018-12-30T00:10:01.946Z,4.70
2018-12-30T00:12:33.085Z,4.40
2018-12-30T00:15:05.958Z,4.40
2018-12-30T00:17:36.210Z,4.33
2018-12-30T00:20:07.901Z,4.73
2018-12-30T00:22:40.908Z,4.17
2018-12-30T00:25:12.442Z,4.90
2018-12-30T00:27:42.747Z,4.70
2018-12-30T00:30:13.863Z,4.50
2018-12-30T00:32:46.054Z,4.77
2018-12-30T00:35:16.774Z,5.07
2018-12-30T00:37:47.962Z,4.47
2018-12-30T00:40:20.843Z,5.30
2018-12-30T00:42:53.737Z,4.77
2018-12-30T00:45:24.857Z,4.77
2018-12-30T00:47:54.554Z,4.50
2018-12-30T00:50:26.461Z,4.40
2018-12-30T00:52:57.958Z,4.50
2018-12-30T00:55:29.093Z,3.77
2018-12-30T00:58:00.542Z,4.93
2018-12-30T01:00:32.549Z,4.20
2018-12-30T01:03:02.818Z,4.87
2018-12-30T01:05:33.234Z,4.37
2018-12-30T01:08:04.727Z,4.50
2018-12-30T01:10:35.914Z,4.47
2018-12-30T01:13:07.050Z,4.70
2018-12-30T01:15:38.226Z,4.23
2018-12-30T01:18:10.311Z,4.37
2018-12-30T01:20:42.901Z,4.60
2018-12-30T01:23:13.093Z,3.80
2018-12-30T01:25:44.509Z,4.73
2018-12-30T01:28:15.891Z,4.20
2018-12-30T01:30:47.862Z,3.93
2018-12-30T01:33:19.174Z,3.90
2018-12-30T01:35:50.417Z,3.97
2018-12-30T01:38:21.549Z,4.50
2018-12-30T01:40:52.721Z,4.10
2018-12-30T01:43:23.757Z,4.30
2018-12-30T01:45:54.889Z,4.33
2018-12-30T01:48:27.802Z,4.30
2018-12-30T01:50:58.400Z,4.43
2018-12-30T01:53:29.559Z,4.47
2018-12-30T01:56:00.690Z,4.07
2018-12-30T01:58:33.154Z,4.07
2018-12-30T02:01:03.674Z,4.57
2018-12-30T02:03:33.467Z,4.30
2018-12-30T02:06:03.756Z,4.57
2018-12-30T02:08:36.826Z,4.50
2018-12-30T02:11:08.332Z,4.30
2018-12-30T02:13:39.397Z,4.73
2018-12-30T02:16:11.973Z,5.07
2018-12-30T02:18:43.082Z,4.80
2018-12-30T02:21:14.256Z,4.90
2018-12-30T02:23:45.354Z,4.50
2018-12-30T02:26:16.639Z,4.77
2018-12-30T02:28:49.651Z,4.50
2018-12-30T02:31:23.017Z,4.60
2018-12-30T02:33:53.350Z,4.97
2018-12-30T02:36:25.777Z,5.33
2018-12-30T02:38:56.924Z,4.63
2018-12-30T02:41:28.483Z,3.80
2018-12-30T02:44:01.358Z,3.90
2018-12-30T02:46:33.457Z,4.33
2018-12-30T02:49:03.734Z,4.00
2018-12-30T02:51:34.865Z,4.57
2018-12-30T02:54:06.451Z,4.43
2018-12-30T02:56:37.549Z,5.00
2018-12-30T02:59:08.687Z,4.53
2018-12-30T03:01:41.637Z,5.10
2018-12-30T03:04:12.733Z,4.00
2018-12-30T03:06:42.865Z,3.87
2018-12-30T03:09:14.399Z,3.63
2018-12-30T03:11:47.336Z,3.80
2018-12-30T03:14:18.955Z,3.83
2018-12-30T03:16:51.794Z,3.77
2018-12-30T03:19:22.395Z,3.53
2018-12-30T03:21:59.225Z,3.97
2018-12-30T03:24:25.629Z,4.30
2018-12-30T03:26:56.767Z,3.67
2018-12-30T03:29:27.796Z,3.77
2018-12-30T03:31:58.900Z,3.67
2018-12-30T03:34:30.035Z,4.27
2018-12-30T03:37:02.669Z,4.17
2018-12-30T03:39:32.826Z,3.97
2018-12-30T03:42:03.301Z,4.30
2018-12-30T03:44:33.605Z,4.30
2018-12-30T03:47:05.605Z,4.23
2018-12-30T03:49:36.655Z,3.83
2018-12-30T03:52:08.947Z,3.53
2018-12-30T03:54:39.702Z,4.00
2018-12-30T03:57:11.000Z,4.63
2018-12-30T03:59:41.409Z,4.93
2018-12-30T04:02:12.542Z,4.23
2018-12-30T04:04:43.686Z,4.10
2018-12-30T04:07:16.661Z,4.17
2018-12-30T04:09:49.743Z,4.50
2018-12-30T04:12:22.239Z,4.67
2018-12-30T04:14:56.681Z,3.80
2018-12-30T04:17:27.108Z,4.20
2018-12-30T04:19:57.294Z,3.73
2018-12-30T04:22:28.943Z,4.10
2018-12-30T04:25:00.294Z,4.07
2018-12-30T04:27:30.706Z,3.90
2018-12-30T04:30:01.111Z,4.67
2018-12-30T04:32:33.843Z,4.30
2018-12-30T04:35:05.152Z,4.27
2018-12-30T04:37:40.296Z,3.90
2018-12-30T04:40:10.465Z,4.33
2018-12-30T04:42:40.874Z,4.60
2018-12-30T04:45:14.254Z,4.53
2018-12-30T04:50:36.693Z,3.63
2018-12-30T04:53:07.355Z,4.70
2018-12-30T04:55:38.410Z,4.57
2018-12-30T04:58:09.615Z,3.97
2018-12-30T05:00:40.758Z,4.07
2018-12-30T05:03:12.210Z,3.87
2018-12-30T05:05:43.337Z,4.33
2018-12-30T05:08:13.551Z,4.13
2018-12-30T05:10:43.240Z,4.67
2018-12-30T05:13:13.418Z,4.17
2018-12-30T05:15:44.545Z,4.17
2018-12-30T05:18:15.679Z,3.57
2018-12-30T05:20:49.949Z,4.60
2018-12-30T05:23:21.086Z,4.10
2018-12-30T05:25:51.633Z,5.10
2018-12-30T05:28:23.610Z,8.03
2018-12-30T05:30:54.953Z,5.43
2018-12-30T05:33:26.210Z,4.80
2018-12-30T05:35:58.566Z,4.40
2018-12-30T05:38:28.742Z,4.47
2018-12-30T05:41:01.551Z,5.53
2018-12-30T05:43:34.389Z,4.30
2018-12-30T05:46:04.901Z,4.47
2018-12-30T05:48:37.877Z,5.47
2018-12-30T05:51:10.409Z,5.03
2018-12-30T05:53:42.982Z,5.40
2018-12-30T05:56:13.185Z,4.77
2018-12-30T05:58:45.544Z,5.03
2018-12-30T06:01:16.837Z,4.40
2018-12-30T06:03:48.046Z,3.93
2018-12-30T06:06:18.461Z,4.60
2018-12-30T06:08:51.814Z,4.60
2018-12-30T06:11:23.525Z,4.87
2018-12-30T06:13:55.899Z,5.07
2018-12-30T06:16:26.045Z,4.90
2018-12-30T06:18:58.975Z,4.60
2018-12-30T06:21:29.260Z,4.93
2018-12-30T06:23:59.570Z,4.10
2018-12-30T06:26:31.420Z,4.30
2018-12-30T06:29:01.819Z,4.40
2018-12-30T06:31:34.101Z,4.20
2018-12-30T06:34:05.278Z,4.67
2018-12-30T06:36:36.478Z,4.23
2018-12-30T06:39:07.214Z,4.63
2018-12-30T06:41:41.087Z,4.27
2018-12-30T06:44:13.650Z,5.20
2018-12-30T06:46:44.891Z,7.57
2018-12-30T06:49:17.128Z,3.97
2018-12-30T06:51:47.386Z,3.70
2018-12-30T06:54:18.754Z,4.10
2018-12-30T06:56:51.206Z,4.63
2018-12-30T06:59:22.265Z,4.37
2018-12-30T07:01:53.384Z,4.33
2018-12-30T07:04:25.481Z,4.33
2018-12-30T07:06:57.890Z,4.50
2018-12-30T07:09:29.206Z,3.60
2018-12-30T07:11:59.953Z,4.77
2018-12-30T07:14:32.454Z,3.93
2018-12-30T07:17:03.653Z,4.03
2018-12-30T07:19:35.990Z,3.93
2018-12-30T07:22:08.468Z,4.50
2018-12-30T07:24:39.602Z,4.67
2018-12-30T07:27:11.278Z,3.90
2018-12-30T07:29:42.469Z,3.37
2018-12-30T07:32:14.232Z,4.00
2018-12-30T07:37:37.478Z,4.37
2018-12-30T07:40:08.638Z,4.53
2018-12-30T07:42:40.228Z,3.87
2018-12-30T07:45:11.906Z,3.50
2018-12-30T07:47:42.990Z,3.57
2018-12-30T07:50:13.218Z,3.83
2018-12-30T07:52:43.497Z,3.87
2018-12-30T07:55:14.598Z,3.70
2018-12-30T07:57:44.790Z,4.33
2018-12-30T08:00:16.374Z,3.83
2018-12-30T08:02:47.438Z,4.20
2018-12-30T08:05:20.531Z,3.80
2018-12-30T08:07:54.534Z,4.27
2018-12-30T08:10:26.155Z,3.20
2018-12-30T08:12:56.357Z,3.50
2018-12-30T08:15:26.549Z,4.40
2018-12-30T08:17:56.950Z,3.97
2018-12-30T08:20:29.447Z,3.57
2018-12-30T08:23:00.613Z,3.40
2018-12-30T08:25:31.817Z,4.17
2018-12-30T08:28:02.949Z,4.07
2018-12-30T08:30:34.984Z,3.93
2018-12-30T08:33:06.533Z,3.43
2018-12-30T08:35:36.277Z,4.13
2018-12-30T08:38:07.270Z,3.13
2018-12-30T08:40:37.498Z,3.37
2018-12-30T08:43:09.718Z,3.50
2018-12-30T08:45:40.916Z,3.13
2018-12-30T08:48:12.189Z,3.47
2018-12-30T08:50:43.426Z,3.10
2018-12-30T08:53:14.843Z,3.57
2018-12-30T08:55:46.010Z,3.97
2018-12-30T08:58:17.222Z,3.53
2018-12-30T09:00:48.389Z,3.97
2018-12-30T09:03:19.505Z,4.10
2018-12-30T09:05:52.340Z,5.97
2018-12-30T09:08:24.870Z,4.80
2018-12-30T09:10:55.332Z,4.70
2018-12-30T09:13:26.686Z,4.43
2018-12-30T09:15:58.325Z,6.23
2018-12-30T09:18:29.830Z,4.80
2018-12-30T09:21:00.074Z,4.00
2018-12-30T09:23:37.255Z,3.87
2018-12-30T09:26:03.291Z,3.57
2018-12-30T09:28:33.483Z,3.43
2018-12-30T09:31:05.343Z,4.47
2018-12-30T09:33:36.292Z,3.90
2018-12-30T09:36:06.614Z,3.87
2018-12-30T09:38:36.908Z,3.23
2018-12-30T09:41:08.999Z,3.60
2018-12-30T09:43:41.663Z,3.67
2018-12-30T09:46:12.786Z,4.00
2018-12-30T09:48:44.249Z,3.80
2018-12-30T09:51:15.418Z,4.13
2018-12-30T09:53:48.401Z,3.93
2018-12-30T09:56:19.571Z,3.90
2018-12-30T09:58:52.395Z,4.60
2018-12-30T10:01:23.578Z,3.47
2018-12-30T10:03:54.113Z,4.63
2018-12-30T10:06:27.034Z,3.80
2018-12-30T10:08:57.422Z,3.83
2018-12-30T10:11:29.589Z,4.50
2018-12-30T10:14:03.475Z,4.53
2018-12-30T10:16:34.892Z,3.40
2018-12-30T10:19:06.383Z,3.77
2018-12-30T10:21:36.145Z,3.77
2018-12-30T10:24:08.468Z,3.83
2018-12-30T10:26:40.907Z,3.43
2018-12-30T10:29:12.034Z,3.90
2018-12-30T10:31:46.149Z,3.50
2018-12-30T10:34:16.409Z,4.23
2018-12-30T10:36:50.599Z,4.50
2018-12-30T10:39:20.882Z,4.37
2018-12-30T10:41:51.229Z,7.73
2018-12-30T10:44:22.339Z,7.67
2018-12-30T10:46:53.546Z,8.57
2018-12-30T10:49:26.383Z,11.80
2018-12-30T10:51:58.639Z,13.47
2018-12-30T10:54:29.740Z,13.47
2018-12-30T10:57:00.821Z,7.50
2018-12-30T10:59:32.505Z,6.93
2018-12-30T11:02:03.716Z,4.30
2018-12-30T11:04:36.552Z,3.47
2018-12-30T11:07:08.587Z,3.73
2018-12-30T11:09:39.730Z,4.07
2018-12-30T11:12:10.794Z,3.87
2018-12-30T11:14:41.063Z,3.40
2018-12-30T11:17:12.109Z,4.67
2018-12-30T11:19:43.274Z,4.03
2018-12-30T11:22:14.572Z,4.20
2018-12-30T11:24:44.669Z,4.60
2018-12-30T11:27:14.882Z,4.37
2018-12-30T11:29:45.178Z,3.80
2018-12-30T11:32:16.842Z,3.87
2018-12-30T11:34:47.866Z,3.47
2018-12-30T11:37:18.093Z,4.20
2018-12-30T11:39:50.919Z,4.57
2018-12-30T11:42:21.070Z,3.83
2018-12-30T11:44:51.275Z,3.53
2018-12-30T11:47:22.393Z,3.30
2018-12-30T11:49:53.575Z,4.33
2018-12-30T11:52:26.360Z,3.80
2018-12-30T11:54:57.510Z,4.10
2018-12-30T11:57:28.650Z,4.67
2018-12-30T11:59:58.931Z,3.50
2018-12-30T12:02:32.554Z,3.80
2018-12-30T12:05:02.757Z,3.77
2018-12-30T12:07:34.229Z,4.27
2018-12-30T12:10:05.218Z,4.50
2018-12-30T12:12:35.590Z,4.40
2018-12-30T12:15:07.007Z,4.17
2018-12-30T12:17:42.661Z,3.20
2018-12-30T12:20:12.934Z,4.20
2018-12-30T12:22:43.267Z,4.03
2018-12-30T12:25:14.726Z,4.00
2018-12-30T12:27:46.890Z,4.00
2018-12-30T12:30:19.049Z,10.47
2018-12-30T12:32:50.337Z,4.03
2018-12-30T12:35:21.519Z,4.77
2018-12-30T12:37:51.213Z,4.50
2018-12-30T12:40:24.234Z,4.37
2018-12-30T12:42:54.415Z,5.50
2018-12-30T12:45:24.113Z,4.77
2018-12-30T12:47:56.307Z,5.83
2018-12-30T12:50:27.512Z,4.90
2018-12-30T12:52:58.634Z,4.70
2018-12-30T12:55:29.816Z,5.03
2018-12-30T12:58:01.014Z,5.10
2018-12-30T13:00:32.083Z,5.60
2018-12-30T13:03:03.534Z,5.70
2018-12-30T13:05:34.668Z,5.70
2018-12-30T13:08:07.076Z,6.00
2018-12-30T13:10:37.550Z,5.90
2018-12-30T13:13:09.046Z,5.00
2018-12-30T13:15:39.306Z,4.87
2018-12-30T13:18:09.495Z,6.10
2018-12-30T13:20:41.073Z,5.30
2018-12-30T13:23:11.242Z,5.30
2018-12-30T13:25:41.438Z,5.70
2018-12-30T13:28:12.572Z,5.60
2018-12-30T13:30:43.742Z,5.57
2018-12-30T13:33:15.158Z,7.93
2018-12-30T13:35:47.180Z,9.17
2018-12-30T13:38:19.726Z,10.50
2018-12-30T13:40:53.797Z,10.77
2018-12-30T13:43:26.636Z,11.67
2018-12-30T13:45:57.953Z,10.17
2018-12-30T13:48:33.259Z,10.43
2018-12-30T13:51:04.532Z,8.20
2018-12-30T13:53:38.487Z,7.23
2018-12-30T13:56:09.700Z,6.60
2018-12-30T13:58:40.831Z,6.93
2018-12-30T14:01:12.943Z,5.97
2018-12-30T14:03:44.054Z,6.90
2018-12-30T14:06:15.213Z,6.40
2018-12-30T14:08:45.402Z,6.60
2018-12-30T14:11:15.584Z,6.60
2018-12-30T14:13:46.717Z,6.87
2018-12-30T14:16:19.271Z,5.90
2018-12-30T14:18:50.478Z,6.80
2018-12-30T14:21:21.623Z,7.40
2018-12-30T14:23:56.054Z,6.50
2018-12-30T14:26:27.230Z,6.77
2018-12-30T14:28:58.269Z,6.37
2018-12-30T14:31:29.613Z,7.07
2018-12-30T14:34:00.743Z,6.83
2018-12-30T14:36:32.805Z,7.70
2018-12-30T14:39:03.531Z,6.37
2018-12-30T14:41:36.360Z,6.40
2018-12-30T14:44:08.432Z,7.10
2018-12-30T14:46:38.601Z,7.07
2018-12-30T14:49:11.543Z,6.40
2018-12-30T14:51:42.672Z,6.47
2018-12-30T14:54:13.103Z,6.17
2018-12-30T14:56:46.203Z,6.63
2018-12-30T14:59:17.422Z,6.00
2018-12-30T15:01:48.546Z,6.90
2018-12-30T15:04:21.386Z,7.53
2018-12-30T15:06:55.452Z,6.80
2018-12-30T15:09:25.730Z,6.27
2018-12-30T15:11:55.514Z,7.00
2018-12-30T15:14:25.707Z,6.60
2018-12-30T15:16:59.447Z,6.20
2018-12-30T15:19:31.010Z,7.80
2018-12-30T15:22:01.331Z,6.03
2018-12-30T15:24:31.506Z,6.37
2018-12-30T15:27:03.046Z,6.50
2018-12-30T15:29:35.470Z,8.43
2018-12-30T15:32:05.650Z,6.87
2018-12-30T15:34:36.811Z,6.70
2018-12-30T15:37:09.733Z,7.70
2018-12-30T15:39:42.134Z,7.30
2018-12-30T15:42:18.876Z,6.57
2018-12-30T15:44:46.746Z,7.07
2018-12-30T15:47:18.117Z,6.70
2018-12-30T15:49:49.273Z,6.33
2018-12-30T15:52:21.826Z,6.80
2018-12-30T15:54:54.674Z,6.77
2018-12-30T15:57:25.806Z,6.73
2018-12-30T15:59:57.022Z,6.90
2018-12-30T16:02:27.337Z,7.43
2018-12-30T16:04:58.773Z,7.33
2018-12-30T16:07:31.063Z,7.50
2018-12-30T16:10:01.286Z,8.73
2018-12-30T16:12:32.429Z,30.87
2018-12-30T16:15:02.715Z,9.13
2018-12-30T16:17:33.925Z,9.87
2018-12-30T16:20:05.638Z,9.23
2018-12-30T16:22:36.870Z,10.23
2018-12-30T16:25:09.464Z,9.83
2018-12-30T16:27:41.644Z,9.40
2018-12-30T16:30:15.605Z,10.60
2018-12-30T16:32:45.866Z,10.63
2018-12-30T16:35:18.710Z,11.47
2018-12-30T16:37:50.142Z,10.97
2018-12-30T16:40:21.470Z,12.53
2018-12-30T16:42:52.641Z,18.53
2018-12-30T16:45:23.854Z,12.80
2018-12-30T16:47:54.985Z,11.87
2018-12-30T16:50:26.135Z,12.93
2018-12-30T16:52:57.205Z,14.00
2018-12-30T16:55:34.696Z,13.70
2018-12-30T16:58:01.555Z,14.00
2018-12-30T17:00:32.758Z,14.20
2018-12-30T17:03:03.895Z,15.43
2018-12-30T17:05:36.846Z,15.67
2018-12-30T17:08:07.109Z,15.60
2018-12-30T17:13:28.297Z,17.03
2018-12-30T17:15:59.425Z,17.63
2018-12-30T17:18:31.710Z,18.13
2018-12-30T17:21:05.901Z,18.27
2018-12-30T17:23:36.951Z,18.83
2018-12-30T17:26:08.089Z,18.83
2018-12-30T17:28:39.427Z,19.73
2018-12-30T17:31:09.714Z,20.17
2018-12-30T17:33:40.829Z,20.47
2018-12-30T17:36:12.938Z,20.43
2018-12-30T17:38:44.514Z,20.70
2018-12-30T17:41:15.826Z,22.50
2018-12-30T17:43:45.608Z,22.37
2018-12-30T17:46:18.297Z,22.30
2018-12-30T17:48:48.797Z,22.00
2018-12-30T17:51:19.933Z,22.20
2018-12-30T17:53:50.969Z,23.37
2018-12-30T17:56:23.238Z,22.30
2018-12-30T17:58:54.395Z,22.77
2018-12-30T18:01:25.514Z,22.93
2018-12-30T18:03:58.473Z,24.23
2018-12-30T18:06:28.711Z,24.00
2018-12-30T18:08:59.881Z,24.07
2018-12-30T18:11:31.443Z,23.50
2018-12-30T18:14:04.240Z,25.40
2018-12-30T18:16:35.703Z,24.83
2018-12-30T18:19:06.863Z,24.97
2018-12-30T18:21:38.069Z,25.73
2018-12-30T18:24:10.495Z,24.23
2018-12-30T18:26:42.261Z,24.23
2018-12-30T18:29:12.486Z,25.80
2018-12-30T18:31:43.744Z,24.63
2018-12-30T18:34:13.962Z,25.73
2018-12-30T18:36:46.910Z,26.07
2018-12-30T18:39:18.533Z,24.40
2018-12-30T18:41:50.938Z,26.63
2018-12-30T18:44:22.401Z,26.17
2018-12-30T18:46:53.628Z,24.97
2018-12-30T18:49:24.790Z,26.77
2018-12-30T18:51:57.709Z,24.63
2018-12-30T18:54:31.979Z,25.37
2018-12-30T18:57:02.245Z,26.47
2018-12-30T18:59:33.405Z,27.07
2018-12-30T19:02:05.481Z,26.70
2018-12-30T19:04:35.865Z,26.63
2018-12-30T19:07:08.427Z,29.03
2018-12-30T19:09:38.666Z,27.53
2018-12-30T19:12:11.501Z,27.90
2018-12-30T19:14:41.772Z,27.33
2018-12-30T19:17:13.946Z,27.43
2018-12-30T19:19:45.082Z,30.03
2018-12-30T19:22:16.214Z,29.13
2018-12-30T19:24:48.555Z,26.10
2018-12-30T19:27:20.805Z,26.57
2018-12-30T19:29:51.930Z,27.27
2018-12-30T19:32:24.539Z,27.20
2018-12-30T19:34:55.803Z,26.83
2018-12-30T19:37:27.173Z,28.47
2018-12-30T19:39:56.611Z,27.60
2018-12-30T19:42:29.145Z,29.00
2018-12-30T19:44:59.802Z,28.47
2018-12-30T19:47:33.997Z,34.53
2018-12-30T19:50:06.537Z,34.63
2018-12-30T19:52:40.714Z,36.47
2018-12-30T19:55:11.997Z,40.93
2018-12-30T19:57:43.675Z,42.73
2018-12-30T20:00:14.857Z,40.30
2018-12-30T20:02:46.869Z,38.53
2018-12-30T20:05:19.779Z,37.77
2018-12-30T20:07:50.046Z,35.73
2018-12-30T20:10:20.253Z,37.50
2018-12-30T20:12:50.769Z,40.23
2018-12-30T20:15:21.797Z,39.40
2018-12-30T20:17:54.013Z,37.87
2018-12-30T20:20:26.708Z,37.60
2018-12-30T20:22:57.843Z,39.27
2018-12-30T20:25:28.943Z,40.57
2018-12-30T20:28:01.054Z,40.07
2018-12-30T20:30:35.542Z,41.87
2018-12-30T20:33:06.680Z,40.93
2018-12-30T20:35:36.942Z,41.33
2018-12-30T20:38:09.013Z,38.30
2018-12-30T20:40:40.478Z,36.47
2018-12-30T20:43:12.112Z,36.20
2018-12-30T20:45:45.193Z,38.00
2018-12-30T20:48:16.383Z,36.83
2018-12-30T20:50:47.522Z,37.20
2018-12-30T20:53:19.669Z,37.13
2018-12-30T20:55:52.195Z,37.23
2018-12-30T20:58:24.727Z,50.63
2018-12-30T21:00:55.930Z,50.03
2018-12-30T21:03:30.031Z,38.27
2018-12-30T21:06:01.127Z,39.23
2018-12-30T21:08:31.546Z,37.07
2018-12-30T21:11:04.276Z,36.63
2018-12-30T21:13:34.448Z,38.17
2018-12-30T21:16:05.608Z,37.57
2018-12-30T21:18:36.710Z,38.07
2018-12-30T21:21:10.802Z,38.27
2018-12-30T21:23:42.335Z,40.13
2018-12-30T21:26:15.181Z,41.47
2018-12-30T21:28:46.426Z,42.20
2018-12-30T21:31:16.685Z,41.63
2018-12-30T21:33:47.754Z,40.47
2018-12-30T21:36:19.059Z,40.80
2018-12-30T21:38:51.058Z,37.90
2018-12-30T21:41:24.075Z,36.97
2018-12-30T21:43:55.182Z,35.80
2018-12-30T21:46:25.489Z,34.93
2018-12-30T21:48:56.718Z,41.47
2018-12-30T21:51:27.964Z,34.93
2018-12-30T21:53:59.368Z,33.67
2018-12-30T21:56:30.069Z,33.97
2018-12-30T21:59:00.245Z,34.53
2018-12-30T22:01:30.954Z,34.07
2018-12-30T22:04:02.012Z,34.47
2018-12-30T22:06:33.986Z,33.47
2018-12-30T22:09:05.994Z,32.90
2018-12-30T22:11:37.115Z,33.37
2018-12-30T22:14:08.297Z,33.90
2018-12-30T22:16:38.615Z,32.40
2018-12-30T22:19:10.809Z,32.07
2018-12-30T22:21:41.293Z,33.43
2018-12-30T22:24:12.377Z,34.47
2018-12-30T22:26:43.602Z,34.30
2018-12-30T22:29:14.738Z,33.43
2018-12-30T22:31:44.502Z,32.83
2018-12-30T22:34:15.613Z,32.97
2018-12-30T22:36:47.586Z,33.40
2018-12-30T22:39:19.342Z,32.17
2018-12-30T22:41:50.736Z,33.27
2018-12-30T22:44:22.708Z,32.73
2018-12-30T22:46:52.473Z,31.90
2018-12-30T22:49:24.922Z,31.13
2018-12-30T22:51:56.368Z,32.07
2018-12-30T22:54:27.638Z,31.53
2018-12-30T22:56:59.293Z,33.03
2018-12-30T22:59:30.466Z,31.90
2018-12-30T23:02:03.268Z,31.43
2018-12-30T23:04:34.374Z,32.40
2018-12-30T23:07:05.654Z,31.83
2018-12-30T23:09:36.858Z,32.80
2018-12-30T23:12:08.933Z,31.53
2018-12-30T23:14:40.102Z,32.63
2018-12-30T23:17:11.205Z,30.17
2018-12-30T23:19:41.463Z,30.17
2018-12-30T23:22:12.573Z,31.77
2018-12-30T23:24:45.030Z,31.17
2018-12-30T23:27:16.213Z,31.10
2018-12-30T23:29:47.468Z,31.00
2018-12-30T23:32:18.701Z,31.57
2018-12-30T23:34:51.002Z,31.40
2018-12-30T23:37:22.715Z,31.33
2018-12-30T23:39:54.711Z,30.50
2018-12-30T23:42:26.818Z,32.17
2018-12-30T23:44:58.033Z,32.77
2018-12-30T23:47:30.133Z,33.10
2018-12-30T23:50:11.385Z,31.33
2018-12-30T23:52:41.659Z,32.67
2018-12-30T23:55:12.801Z,32.47
2018-12-30T23:57:44.245Z,32.80
